Time;durP1;ratioP1;P1;durP2;ratioP2;P2;SDS_P1;SDS_P2;PMS_P1;PMS_P2;Temp;Humidity;BMP_temperature;BMP_pressure;BME280_temperature;BME280_humidity;BME280_pressure;Samples;Min_cycle;Max_cycle;Signal;HPM_P1;HPM_P2
2023/03/03 00:01:32;;;;;;;53.22;24.30;;;;;;;;;;5052900;28;20193;-69
2023/03/03 00:03:59;;;;;;;50.35;23.88;;;;;;;;;;5052514;28;20196;-69
2023/03/03 00:06:29;;;;;;;49.38;20.77;;;;;;;;;;5053362;28;20231;-69
2023/03/03 00:08:57;;;;;;;46.03;22.20;;;;;;;;;;5052715;28;20288;-68
2023/03/03 00:11:25;;;;;;;48.38;22.63;;;;;;;;;;5052529;28;20201;-68
2023/03/03 00:13:53;;;;;;;44.00;21.00;;;;;;;;;;5052453;28;20231;-68
2023/03/03 00:16:23;;;;;;;42.78;21.23;;;;;;;;;;5052789;28;20196;-69
2023/03/03 00:18:51;;;;;;;39.28;21.27;;;;;;;;;;5056562;28;20181;-68
2023/03/03 00:21:25;;;;;;;38.05;20.17;;;;;;;;;;5056348;28;20286;-69
2023/03/03 00:23:52;;;;;;;41.65;21.02;;;;;;;;;;5056641;28;20181;-68
2023/03/03 00:26:22;;;;;;;42.40;22.40;;;;;;;;;;5056267;28;20194;-68
2023/03/03 00:28:50;;;;;;;43.50;21.40;;;;;;;;;;5056078;28;20244;-69
2023/03/03 00:31:18;;;;;;;37.55;19.65;;;;;;;;;;5056190;28;20193;-70
2023/03/03 00:33:49;;;;;;;46.53;22.10;;;;;;;;;;5056487;28;20218;-71
2023/03/03 00:36:30;;;;;;;40.42;19.95;;;;;;;;;;5056441;28;20238;-70
2023/03/03 00:38:58;;;;;;;43.53;21.75;;;;;;;;;;5055607;28;20183;-70
2023/03/03 00:41:28;;;;;;;37.40;18.70;;;;;;;;;;5055705;28;20196;-69
2023/03/03 00:43:55;;;;;;;43.40;19.90;;;;;;;;;;5056066;28;20192;-69
2023/03/03 00:46:23;;;;;;;43.75;19.80;;;;;;;;;;5056176;28;20281;-69
2023/03/03 00:48:51;;;;;;;33.30;18.73;;;;;;;;;;5055651;28;20224;-68
2023/03/03 00:51:28;;;;;;;36.70;20.08;;;;;;;;;;5055640;28;20231;-69
2023/03/03 00:53:56;;;;;;;41.65;22.27;;;;;;;;;;5055355;28;20699;-68
2023/03/03 00:56:23;;;;;;;47.35;21.20;;;;;;;;;;5055375;28;20646;-69
2023/03/03 00:58:53;;;;;;;48.70;22.10;;;;;;;;;;5055515;28;20654;-69
2023/03/03 01:01:20;;;;;;;41.42;21.38;;;;;;;;;;5055321;28;20647;-68
2023/03/03 01:03:47;;;;;;;56.13;24.00;;;;;;;;;;5055052;28;20690;-69
2023/03/03 01:06:15;;;;;;;51.13;24.77;;;;;;;;;;5055343;28;20227;-69
2023/03/03 01:08:42;;;;;;;54.65;23.27;;;;;;;;;;5055366;28;20521;-69
2023/03/03 01:11:15;;;;;;;45.65;21.10;;;;;;;;;;5055383;28;20203;-69
2023/03/03 01:13:43;;;;;;;48.13;22.38;;;;;;;;;;5055652;28;20247;-69
2023/03/03 01:16:12;;;;;;;48.28;23.20;;;;;;;;;;5055226;28;20200;-69
2023/03/03 01:18:40;;;;;;;58.10;23.27;;;;;;;;;;5055146;28;20196;-69
2023/03/03 01:21:07;;;;;;;50.47;24.17;;;;;;;;;;5054829;28;20705;-69
2023/03/03 01:23:35;;;;;;;55.78;24.38;;;;;;;;;;5055384;28;20191;-70
2023/03/03 01:26:02;;;;;;;44.03;21.35;;;;;;;;;;5055204;28;20195;-69
2023/03/03 01:28:30;;;;;;;44.85;22.80;;;;;;;;;;5054867;28;20550;-69
2023/03/03 01:31:00;;;;;;;56.65;24.05;;;;;;;;;;5055311;28;20219;-69
2023/03/03 01:33:30;;;;;;;58.38;24.02;;;;;;;;;;5055201;28;20197;-70
2023/03/03 01:35:57;;;;;;;52.40;23.33;;;;;;;;;;5054573;28;20196;-69
2023/03/03 01:38:24;;;;;;;73.40;26.27;;;;;;;;;;5055101;28;20199;-69
2023/03/03 01:40:55;;;;;;;60.42;25.48;;;;;;;;;;5054639;28;20217;-69
2023/03/03 01:43:23;;;;;;;56.38;27.00;;;;;;;;;;5054871;28;20199;-69
2023/03/03 01:46:09;;;;;;;58.80;24.88;;;;;;;;;;5054667;28;20196;-69
2023/03/03 01:48:39;;;;;;;71.03;26.85;;;;;;;;;;5054737;28;20196;-70
2023/03/03 01:51:10;;;;;;;61.72;24.55;;;;;;;;;;5054428;28;20652;-69
2023/03/03 01:53:39;;;;;;;68.13;26.08;;;;;;;;;;5055032;28;20189;-69
2023/03/03 01:56:08;;;;;;;57.08;25.27;;;;;;;;;;5054469;28;20187;-69
2023/03/03 01:58:36;;;;;;;58.00;25.63;;;;;;;;;;5054481;28;20187;-69
2023/03/03 02:01:04;;;;;;;60.03;25.48;;;;;;;;;;5054515;28;20219;-69
2023/03/03 02:03:32;;;;;;;67.22;23.52;;;;;;;;;;5054120;28;20217;-69
2023/03/03 02:06:02;;;;;;;67.72;24.60;;;;;;;;;;5053998;28;20230;-69
2023/03/03 02:08:33;;;;;;;62.83;27.05;;;;;;;;;;5054332;28;20521;-69
2023/03/03 02:11:01;;;;;;;54.15;25.00;;;;;;;;;;5053933;28;20621;-69
2023/03/03 02:13:28;;;;;;;47.88;24.00;;;;;;;;;;5053947;28;20202;-69
2023/03/03 02:15:55;;;;;;;53.70;23.67;;;;;;;;;;5054099;28;20188;-69
2023/03/03 02:18:22;;;;;;;50.53;23.15;;;;;;;;;;5054175;28;20199;-69
2023/03/03 02:20:54;;;;;;;53.30;24.30;;;;;;;;;;5053974;28;20215;-69
2023/03/03 02:23:24;;;;;;;55.25;23.70;;;;;;;;;;5053773;28;20183;-69
2023/03/03 02:25:55;;;;;;;54.97;24.58;;;;;;;;;;5054087;28;20190;-69
2023/03/03 02:28:25;;;;;;;54.78;24.40;;;;;;;;;;5053873;28;20197;-69
2023/03/03 02:30:54;;;;;;;52.92;23.02;;;;;;;;;;5053569;28;20210;-68
2023/03/03 02:33:22;;;;;;;53.70;24.45;;;;;;;;;;5053836;28;20534;-69
2023/03/03 02:35:49;;;;;;;57.08;24.98;;;;;;;;;;5053426;28;20195;-69
2023/03/03 02:38:20;;;;;;;53.35;23.25;;;;;;;;;;5053945;28;20210;-69
2023/03/03 02:40:52;;;;;;;60.35;24.23;;;;;;;;;;5053422;28;20215;-68
2023/03/03 02:43:21;;;;;;;48.58;23.17;;;;;;;;;;5054367;28;20179;-69
2023/03/03 02:45:49;;;;;;;57.17;25.20;;;;;;;;;;5053878;28;20228;-69
2023/03/03 02:48:17;;;;;;;54.22;24.42;;;;;;;;;;5053664;28;20195;-69
2023/03/03 02:50:44;;;;;;;65.10;24.23;;;;;;;;;;5053267;28;20646;-69
2023/03/03 02:53:11;;;;;;;53.75;21.60;;;;;;;;;;5053589;28;20544;-69
2023/03/03 02:55:38;;;;;;;54.65;24.15;;;;;;;;;;5053155;28;20632;-69
2023/03/03 02:58:05;;;;;;;57.88;25.05;;;;;;;;;;5053183;28;20197;-69
2023/03/03 03:00:32;;;;;;;55.25;24.90;;;;;;;;;;5053418;28;20556;-69
2023/03/03 03:03:01;;;;;;;58.95;23.05;;;;;;;;;;5053349;28;20527;-69
2023/03/03 03:05:28;;;;;;;53.90;23.08;;;;;;;;;;5053342;28;20192;-69
2023/03/03 03:07:56;;;;;;;65.07;25.95;;;;;;;;;;5053326;28;20219;-69
2023/03/03 03:10:23;;;;;;;60.33;27.40;;;;;;;;;;5053769;28;20219;-69
2023/03/03 03:12:50;;;;;;;52.35;25.00;;;;;;;;;;5053082;28;20192;-69
2023/03/03 03:15:17;;;;;;;61.45;24.77;;;;;;;;;;5053297;28;20193;-69
2023/03/03 03:17:44;;;;;;;56.58;25.60;;;;;;;;;;5053522;28;20195;-69
2023/03/03 03:20:14;;;;;;;50.80;21.15;;;;;;;;;;5052862;28;20224;-69
2023/03/03 03:22:41;;;;;;;73.80;29.23;;;;;;;;;;5053306;28;20240;-69
2023/03/03 03:25:08;;;;;;;54.63;24.20;;;;;;;;;;5053155;28;20187;-69
2023/03/03 03:27:36;;;;;;;55.00;24.60;;;;;;;;;;5053161;28;20205;-69
2023/03/03 03:30:03;;;;;;;58.92;23.58;;;;;;;;;;5053145;28;20254;-69
2023/03/03 03:32:30;;;;;;;50.65;23.67;;;;;;;;;;5053153;28;20283;-69
2023/03/03 03:34:57;;;;;;;62.47;24.90;;;;;;;;;;5053148;28;20191;-69
2023/03/03 03:37:26;;;;;;;60.20;24.55;;;;;;;;;;5053011;28;20194;-68
2023/03/03 03:39:53;;;;;;;68.07;24.38;;;;;;;;;;5052678;28;20200;-70
2023/03/03 03:42:21;;;;;;;58.60;24.63;;;;;;;;;;5053030;28;20195;-69
2023/03/03 03:44:49;;;;;;;49.75;22.63;;;;;;;;;;5052762;28;20191;-69
2023/03/03 03:47:17;;;;;;;67.85;24.10;;;;;;;;;;5052954;28;20195;-70
2023/03/03 03:49:44;;;;;;;65.15;24.10;;;;;;;;;;5052760;28;20224;-69
2023/03/03 03:52:11;;;;;;;58.67;23.85;;;;;;;;;;5054014;28;20223;-69
2023/03/03 03:54:39;;;;;;;59.85;25.20;;;;;;;;;;5056553;28;20202;-69
2023/03/03 03:57:07;;;;;;;60.70;23.60;;;;;;;;;;5056621;28;20278;-69
2023/03/03 03:59:34;;;;;;;61.35;25.10;;;;;;;;;;5056943;28;20228;-69
2023/03/03 04:02:01;;;;;;;62.72;24.52;;;;;;;;;;5056512;28;20223;-69
2023/03/03 04:04:28;;;;;;;68.07;25.83;;;;;;;;;;5056839;28;20187;-69
2023/03/03 04:06:55;;;;;;;63.28;23.90;;;;;;;;;;5056833;28;20242;-69
2023/03/03 04:09:23;;;;;;;63.90;25.17;;;;;;;;;;5056730;28;20194;-69
2023/03/03 04:11:51;;;;;;;64.20;24.67;;;;;;;;;;5056446;28;20192;-69
2023/03/03 04:14:18;;;;;;;50.30;21.45;;;;;;;;;;5056545;28;20588;-69
2023/03/03 04:16:45;;;;;;;55.90;23.08;;;;;;;;;;5056029;28;20637;-69
2023/03/03 04:19:13;;;;;;;61.67;23.33;;;;;;;;;;5056157;28;20663;-69
2023/03/03 04:21:40;;;;;;;52.72;25.23;;;;;;;;;;5056330;28;20222;-69
2023/03/03 04:24:07;;;;;;;53.60;22.05;;;;;;;;;;5056393;28;20191;-69
2023/03/03 04:26:34;;;;;;;57.90;22.10;;;;;;;;;;5056587;28;20192;-69
2023/03/03 04:29:03;;;;;;;48.65;22.60;;;;;;;;;;5056230;28;20196;-69
2023/03/03 04:31:30;;;;;;;48.58;21.92;;;;;;;;;;5056249;28;20198;-69
2023/03/03 04:33:58;;;;;;;55.00;19.50;;;;;;;;;;5056097;28;20191;-69
2023/03/03 04:36:25;;;;;;;49.28;20.30;;;;;;;;;;5055996;28;20217;-70
2023/03/03 04:38:52;;;;;;;42.75;18.20;;;;;;;;;;5056240;28;20191;-69
2023/03/03 04:41:19;;;;;;;43.85;18.90;;;;;;;;;;5055481;28;20223;-70
2023/03/03 04:43:46;;;;;;;35.72;16.77;;;;;;;;;;5055580;28;20199;-70
2023/03/03 04:46:15;;;;;;;37.33;17.55;;;;;;;;;;5056365;28;20246;-70
2023/03/03 04:48:42;;;;;;;47.97;21.00;;;;;;;;;;5056189;28;20652;-70
2023/03/03 04:51:09;;;;;;;46.05;16.98;;;;;;;;;;5055404;28;20641;-69
2023/03/03 04:53:37;;;;;;;37.17;17.05;;;;;;;;;;5055387;28;20195;-69
2023/03/03 04:56:04;;;;;;;35.22;16.77;;;;;;;;;;5053299;28;20193;-70
2023/03/03 04:58:32;;;;;;;41.83;16.55;;;;;;;;;;5053943;28;20208;-69
2023/03/03 05:00:59;;;;;;;40.75;16.27;;;;;;;;;;5054145;28;20215;-69
2023/03/03 05:03:28;;;;;;;38.38;18.33;;;;;;;;;;5054585;28;20193;-69
2023/03/03 05:05:55;;;;;;;45.30;18.40;;;;;;;;;;5054730;28;20221;-68
2023/03/03 05:08:22;;;;;;;44.92;20.73;;;;;;;;;;5054803;28;20185;-69
2023/03/03 05:10:52;;;;;;;39.15;17.65;;;;;;;;;;5054973;28;20556;-69
2023/03/03 05:13:20;;;;;;;43.67;19.50;;;;;;;;;;5054755;28;20189;-69
2023/03/03 05:15:50;;;;;;;39.55;18.23;;;;;;;;;;5055066;28;20204;-68
2023/03/03 05:18:17;;;;;;;46.92;19.42;;;;;;;;;;5054792;28;20216;-68
2023/03/03 05:20:46;;;;;;;40.85;16.98;;;;;;;;;;5054883;28;20231;-69
2023/03/03 05:23:13;;;;;;;42.42;17.73;;;;;;;;;;5054865;28;20200;-68
2023/03/03 05:25:41;;;;;;;46.65;18.98;;;;;;;;;;5054948;28;20185;-69
2023/03/03 05:28:08;;;;;;;44.85;20.63;;;;;;;;;;5054691;28;20265;-69
2023/03/03 05:30:36;;;;;;;41.58;18.08;;;;;;;;;;5054802;28;20533;-67
2023/03/03 05:33:03;;;;;;;52.53;20.02;;;;;;;;;;5054862;28;20189;-73
2023/03/03 05:35:30;;;;;;;46.72;18.05;;;;;;;;;;5054952;28;20189;-84
2023/03/03 05:37:58;;;;;;;48.72;19.20;;;;;;;;;;5054319;28;20207;-69
2023/03/03 05:40:26;;;;;;;44.38;18.98;;;;;;;;;;5054322;28;20659;-69
2023/03/03 05:42:53;;;;;;;43.15;18.60;;;;;;;;;;5054601;28;20192;-69
2023/03/03 05:45:23;;;;;;;48.17;19.02;;;;;;;;;;5054675;28;20192;-69
2023/03/03 05:47:50;;;;;;;44.38;18.02;;;;;;;;;;5053860;28;20196;-69
2023/03/03 05:50:18;;;;;;;45.63;17.15;;;;;;;;;;5054708;28;20278;-69
2023/03/03 05:52:45;;;;;;;48.53;19.88;;;;;;;;;;5054290;28;20199;-69
2023/03/03 05:55:14;;;;;;;46.30;17.65;;;;;;;;;;5054374;28;20196;-69
2023/03/03 05:57:41;;;;;;;39.45;18.77;;;;;;;;;;5054206;28;20202;-69
2023/03/03 06:00:09;;;;;;;42.70;20.05;;;;;;;;;;5053776;28;20288;-69
2023/03/03 06:02:36;;;;;;;40.30;17.67;;;;;;;;;;5054040;28;20219;-69
2023/03/03 06:05:03;;;;;;;45.30;20.55;;;;;;;;;;5054880;28;20769;-69
2023/03/03 06:07:30;;;;;;;48.38;19.50;;;;;;;;;;5053100;28;20220;-69
2023/03/03 06:09:58;;;;;;;48.38;19.75;;;;;;;;;;5054140;28;20527;-69
2023/03/03 06:12:26;;;;;;;52.67;21.38;;;;;;;;;;5054158;28;20197;-69
2023/03/03 06:14:53;;;;;;;56.75;20.42;;;;;;;;;;5053350;28;20194;-69
2023/03/03 06:17:21;;;;;;;46.28;20.42;;;;;;;;;;5053471;28;20192;-70
2023/03/03 06:19:48;;;;;;;45.65;19.55;;;;;;;;;;5053435;28;20203;-69
2023/03/03 06:22:15;;;;;;;44.95;19.52;;;;;;;;;;5054279;28;20217;-69
2023/03/03 06:24:42;;;;;;;41.35;18.92;;;;;;;;;;5053624;28;20283;-69
2023/03/03 06:27:10;;;;;;;52.60;22.25;;;;;;;;;;5053505;28;20633;-69
2023/03/03 06:29:38;;;;;;;40.60;18.00;;;;;;;;;;5053197;28;20675;-69
2023/03/03 06:32:06;;;;;;;36.28;15.73;;;;;;;;;;5053832;28;20191;-69
2023/03/03 06:34:33;;;;;;;35.60;14.38;;;;;;;;;;5053627;28;20283;-69
2023/03/03 06:37:00;;;;;;;36.47;17.65;;;;;;;;;;5053765;28;20192;-69
2023/03/03 06:39:27;;;;;;;37.50;15.13;;;;;;;;;;5053008;28;20633;-70
2023/03/03 06:41:54;;;;;;;31.25;15.05;;;;;;;;;;5053500;28;20301;-69
2023/03/03 06:44:22;;;;;;;34.70;15.50;;;;;;;;;;5053328;28;20196;-69
2023/03/03 06:46:50;;;;;;;34.78;16.08;;;;;;;;;;5053435;28;20203;-70
2023/03/03 06:49:17;;;;;;;39.95;17.20;;;;;;;;;;5053263;28;20191;-69
2023/03/03 06:51:45;;;;;;;35.80;16.70;;;;;;;;;;5053413;28;20204;-69
2023/03/03 06:54:13;;;;;;;32.60;14.40;;;;;;;;;;5053304;28;20220;-69
2023/03/03 06:56:41;;;;;;;32.88;14.90;;;;;;;;;;5053296;28;20567;-70
2023/03/03 06:59:12;;;;;;;28.73;14.05;;;;;;;;;;5052902;28;20192;-69
2023/03/03 07:01:39;;;;;;;35.92;15.05;;;;;;;;;;5053055;28;20204;-69
2023/03/03 07:04:14;;;;;;;32.88;14.93;;;;;;;;;;5052525;28;20201;-71
2023/03/03 07:06:41;;;;;;;38.08;15.35;;;;;;;;;;5052926;28;20232;-69
2023/03/03 07:09:15;;;;;;;33.35;15.90;;;;;;;;;;5052946;28;20540;-68
2023/03/03 07:11:42;;;;;;;40.28;17.58;;;;;;;;;;5053289;28;20188;-69
2023/03/03 07:14:14;;;;;;;32.15;15.48;;;;;;;;;;5053094;28;20195;-69
2023/03/03 07:16:41;;;;;;;42.80;16.25;;;;;;;;;;5053265;28;20612;-68
2023/03/03 07:19:15;;;;;;;33.40;14.00;;;;;;;;;;5052707;28;20547;-69
2023/03/03 07:21:43;;;;;;;36.22;14.27;;;;;;;;;;5052795;28;20295;-68
2023/03/03 07:24:19;;;;;;;40.45;16.17;;;;;;;;;;5053129;28;20199;-68
2023/03/03 07:26:46;;;;;;;34.70;15.95;;;;;;;;;;5055652;28;20209;-68
2023/03/03 07:29:19;;;;;;;27.52;14.15;;;;;;;;;;5056567;28;20200;-69
2023/03/03 07:31:47;;;;;;;32.97;14.80;;;;;;;;;;5057110;28;20185;-68
2023/03/03 07:34:17;;;;;;;33.25;14.63;;;;;;;;;;5056764;28;20196;-69
2023/03/03 07:36:46;;;;;;;29.50;14.60;;;;;;;;;;5057027;28;20197;-69
2023/03/03 07:39:26;;;;;;;30.83;14.43;;;;;;;;;;5056597;28;20194;-69
2023/03/03 07:41:55;;;;;;;28.48;14.50;;;;;;;;;;5056552;28;20215;-69
2023/03/03 07:44:23;;;;;;;26.50;13.98;;;;;;;;;;5057060;28;20190;-69
2023/03/03 07:46:51;;;;;;;32.17;15.10;;;;;;;;;;5056482;28;20634;-68
2023/03/03 07:49:23;;;;;;;35.05;15.32;;;;;;;;;;5056199;28;20247;-68
2023/03/03 07:51:56;;;;;;;32.60;14.07;;;;;;;;;;5056434;28;20194;-68
2023/03/03 07:54:35;;;;;;;36.50;17.10;;;;;;;;;;5056942;28;20188;-68
2023/03/03 07:57:07;;;;;;;28.75;14.80;;;;;;;;;;5057059;28;20522;-69
2023/03/03 07:59:35;;;;;;;35.85;15.10;;;;;;;;;;5056583;28;20213;-69
2023/03/03 08:02:03;;;;;;;32.30;14.23;;;;;;;;;;5075634;28;20219;-68
2023/03/03 08:04:37;;;;;;;26.05;13.02;;;;;;;;;;5076461;28;20541;-69
2023/03/03 08:07:12;;;;;;;25.05;13.02;;;;;;;;;;5076500;28;20688;-69
2023/03/03 08:09:47;;;;;;;34.22;13.70;;;;;;;;;;5076330;28;20180;-69
2023/03/03 08:12:19;;;;;;;25.70;14.23;;;;;;;;;;5076371;28;20191;-69
2023/03/03 08:14:47;;;;;;;29.08;12.63;;;;;;;;;;5076443;28;20205;-69
2023/03/03 08:17:15;;;;;;;39.40;15.95;;;;;;;;;;5075945;28;20197;-69
2023/03/03 08:19:42;;;;;;;40.30;21.88;;;;;;;;;;5075507;28;20192;-69
2023/03/03 08:22:14;;;;;;;40.83;19.80;;;;;;;;;;5075970;28;20639;-69
2023/03/03 08:24:41;;;;;;;26.90;12.30;;;;;;;;;;5073171;28;20198;-69
2023/03/03 08:27:08;;;;;;;31.85;14.30;;;;;;;;;;5056269;28;20199;-69
2023/03/03 08:29:35;;;;;;;29.73;13.18;;;;;;;;;;5055905;28;20208;-69
2023/03/03 08:32:03;;;;;;;29.55;13.43;;;;;;;;;;5055164;28;20202;-68
2023/03/03 08:34:30;;;;;;;29.45;14.35;;;;;;;;;;5055563;28;20650;-69
2023/03/03 08:36:57;;;;;;;29.67;13.82;;;;;;;;;;5055271;28;20201;-68
2023/03/03 08:39:26;;;;;;;26.75;13.68;;;;;;;;;;5055137;28;20194;-69
2023/03/03 08:41:53;;;;;;;27.55;14.88;;;;;;;;;;5055849;28;20213;-69
2023/03/03 08:44:20;;;;;;;36.28;14.70;;;;;;;;;;5055783;28;20632;-68
2023/03/03 08:46:47;;;;;;;27.98;12.98;;;;;;;;;;5055631;28;20558;-68
2023/03/03 08:49:14;;;;;;;30.85;13.38;;;;;;;;;;5055560;28;20635;-68
2023/03/03 08:51:42;;;;;;;29.45;13.43;;;;;;;;;;5055262;28;20212;-69
2023/03/03 08:54:09;;;;;;;28.55;13.15;;;;;;;;;;5055594;28;20292;-69
2023/03/03 08:56:37;;;;;;;31.60;14.30;;;;;;;;;;5055331;28;20225;-69
2023/03/03 08:59:05;;;;;;;26.55;13.00;;;;;;;;;;5055101;28;20201;-68
2023/03/03 09:01:32;;;;;;;32.50;13.98;;;;;;;;;;5055346;28;20205;-68
2023/03/03 09:04:00;;;;;;;32.85;15.63;;;;;;;;;;5055521;28;20199;-69
2023/03/03 09:06:27;;;;;;;28.77;13.20;;;;;;;;;;5055174;28;20228;-70
2023/03/03 09:08:54;;;;;;;23.52;10.55;;;;;;;;;;5055192;28;20188;-70
2023/03/03 09:11:24;;;;;;;26.05;12.65;;;;;;;;;;5054860;28;20200;-69
2023/03/03 09:13:55;;;;;;;24.95;14.55;;;;;;;;;;5055393;28;20201;-69
2023/03/03 09:16:22;;;;;;;26.75;12.80;;;;;;;;;;5055342;28;20243;-70
2023/03/03 09:18:49;;;;;;;27.45;13.20;;;;;;;;;;5054686;28;20222;-70
2023/03/03 09:21:18;;;;;;;26.10;13.40;;;;;;;;;;5054634;28;20193;-69
2023/03/03 09:23:49;;;;;;;26.90;13.95;;;;;;;;;;5055048;28;20223;-69
2023/03/03 09:26:25;;;;;;;28.50;14.30;;;;;;;;;;5055018;28;20578;-69
2023/03/03 09:28:54;;;;;;;30.77;18.23;;;;;;;;;;5054745;28;20186;-69
2023/03/03 09:31:25;;;;;;;23.88;12.73;;;;;;;;;;5054937;28;20214;-70
2023/03/03 09:33:56;;;;;;;28.83;13.65;;;;;;;;;;5055056;28;20191;-69
2023/03/03 09:36:25;;;;;;;27.38;14.55;;;;;;;;;;5054875;28;20191;-69
2023/03/03 09:38:52;;;;;;;31.55;15.27;;;;;;;;;;5055002;28;20542;-69
2023/03/03 09:41:46;;;;;;;31.98;13.82;;;;;;;;;;5054817;28;20194;-70
2023/03/03 09:44:22;;;;;;;23.20;12.13;;;;;;;;;;4997099;28;20281;-69
2023/03/03 09:46:57;;;;;;;24.58;12.13;;;;;;;;;;5054789;28;20180;-69
2023/03/03 09:49:29;;;;;;;28.40;13.48;;;;;;;;;;5055100;28;20185;-69
2023/03/03 09:52:12;;;;;;;31.40;15.80;;;;;;;;;;5054783;28;20185;-70
2023/03/03 09:54:48;;;;;;;30.02;13.60;;;;;;;;;;5052424;28;20227;-69
2023/03/03 09:57:16;;;;;;;31.63;13.35;;;;;;;;;;5054562;28;20277;-70
2023/03/03 09:59:51;;;;;;;32.78;14.68;;;;;;;;;;5054288;28;20644;-69
2023/03/03 10:02:32;;;;;;;32.30;15.55;;;;;;;;;;5054218;28;20774;-69
2023/03/03 10:05:06;;;;;;;29.58;13.05;;;;;;;;;;5054233;28;20184;-69
2023/03/03 10:07:38;;;;;;;33.10;16.60;;;;;;;;;;5054011;28;20691;-69
2023/03/03 10:10:26;;;;;;;32.22;15.30;;;;;;;;;;5054428;28;20180;-69
2023/03/03 10:13:00;;;;;;;32.53;14.70;;;;;;;;;;5054333;28;20183;-69
2023/03/03 10:15:40;;;;;;;31.60;14.00;;;;;;;;;;5054708;28;20194;-69
2023/03/03 10:18:13;;;;;;;31.00;15.40;;;;;;;;;;5054178;28;20183;-69
2023/03/03 10:20:57;;;;;;;24.98;13.70;;;;;;;;;;5054180;28;20187;-69
2023/03/03 10:23:32;;;;;;;32.58;15.73;;;;;;;;;;5054525;28;20546;-69
2023/03/03 10:26:04;;;;;;;33.90;14.07;;;;;;;;;;5053791;28;20646;-70
2023/03/03 10:28:42;;;;;;;34.00;16.20;;;;;;;;;;5054063;28;20188;-69
2023/03/03 10:31:15;;;;;;;30.92;15.35;;;;;;;;;;5054316;28;20181;-70
2023/03/03 10:33:48;;;;;;;33.17;15.82;;;;;;;;;;5053407;28;20191;-69
2023/03/03 10:36:29;;;;;;;40.83;15.68;;;;;;;;;;5053019;28;20189;-70
2023/03/03 10:39:01;;;;;;;33.55;15.30;;;;;;;;;;5053680;28;20186;-69
2023/03/03 10:41:34;;;;;;;28.50;14.32;;;;;;;;;;5053684;28;20616;-70
2023/03/03 10:44:13;;;;;;;29.92;13.95;;;;;;;;;;5053598;28;20218;-69
2023/03/03 10:46:53;;;;;;;35.20;14.68;;;;;;;;;;5053716;28;20183;-69
2023/03/03 10:49:28;;;;;;;35.60;16.00;;;;;;;;;;5053978;28;20235;-69
2023/03/03 10:52:13;;;;;;;31.95;15.45;;;;;;;;;;5053135;28;20273;-69
2023/03/03 10:54:50;;;;;;;32.47;14.52;;;;;;;;;;5052712;28;20210;-69
2023/03/03 10:57:23;;;;;;;36.22;13.90;;;;;;;;;;5053485;28;20232;-69
2023/03/03 10:59:59;;;;;;;25.75;13.20;;;;;;;;;;5053486;28;20191;-69
2023/03/03 11:02:31;;;;;;;36.70;16.15;;;;;;;;;;5053013;28;20209;-70
2023/03/03 11:05:03;;;;;;;38.15;16.23;;;;;;;;;;5053456;28;20185;-69
2023/03/03 11:07:35;;;;;;;28.17;13.88;;;;;;;;;;5053600;28;20683;-69
2023/03/03 11:10:06;;;;;;;32.25;15.80;;;;;;;;;;5053558;28;20200;-69
2023/03/03 11:12:46;;;;;;;32.78;15.80;;;;;;;;;;5053490;28;20186;-69
2023/03/03 11:15:31;;;;;;;28.75;14.50;;;;;;;;;;5052520;28;20188;-70
2023/03/03 11:18:04;;;;;;;31.90;14.27;;;;;;;;;;5053036;28;20272;-70
2023/03/03 11:20:37;;;;;;;28.80;14.63;;;;;;;;;;5052891;28;20175;-69
2023/03/03 11:23:14;;;;;;;25.80;13.80;;;;;;;;;;5052477;28;20584;-69
2023/03/03 11:25:45;;;;;;;28.80;14.00;;;;;;;;;;5052673;28;20186;-69
2023/03/03 11:28:18;;;;;;;22.40;12.43;;;;;;;;;;5053105;28;20510;-69
2023/03/03 11:30:59;;;;;;;30.00;14.82;;;;;;;;;;5052587;28;20626;-69
2023/03/03 11:33:33;;;;;;;33.00;14.88;;;;;;;;;;5052778;28;20188;-69
2023/03/03 11:36:07;;;;;;;28.58;14.85;;;;;;;;;;5052886;28;20220;-69
2023/03/03 11:38:41;;;;;;;29.70;13.90;;;;;;;;;;5053319;28;20177;-69
2023/03/03 11:41:12;;;;;;;34.00;20.88;;;;;;;;;;5053507;28;20272;-69
2023/03/03 11:43:42;;;;;;;35.22;14.02;;;;;;;;;;5052276;28;20216;-69
2023/03/03 11:46:10;;;;;;;24.15;13.07;;;;;;;;;;5052805;28;20199;-69
2023/03/03 11:48:41;;;;;;;24.55;12.38;;;;;;;;;;5052980;28;20197;-69
2023/03/03 11:51:12;;;;;;;22.98;13.02;;;;;;;;;;5052435;28;20188;-69
2023/03/03 11:53:45;;;;;;;25.90;14.65;;;;;;;;;;5052245;28;20284;-69
2023/03/03 11:56:18;;;;;;;26.17;14.77;;;;;;;;;;5052572;28;20181;-69
2023/03/03 11:58:47;;;;;;;27.20;13.85;;;;;;;;;;5052795;28;20200;-70
2023/03/03 12:01:21;;;;;;;21.50;12.55;;;;;;;;;;5053067;28;20194;-69
2023/03/03 12:03:50;;;;;;;25.65;13.05;;;;;;;;;;5052292;28;20684;-69
2023/03/03 12:06:23;;;;;;;23.75;11.15;;;;;;;;;;5052810;28;20236;-69
2023/03/03 12:09:05;;;;;;;21.67;12.93;;;;;;;;;;5052345;28;20186;-69
2023/03/03 12:11:35;;;;;;;24.25;13.27;;;;;;;;;;5049323;28;20546;-69
2023/03/03 12:14:06;;;;;;;24.02;13.13;;;;;;;;;;5055283;28;20235;-70
2023/03/03 12:16:39;;;;;;;23.45;12.00;;;;;;;;;;5056228;28;20175;-69
2023/03/03 12:19:25;;;;;;;22.83;12.65;;;;;;;;;;5055847;28;20624;-69
2023/03/03 12:22:01;;;;;;;26.00;13.35;;;;;;;;;;5056261;28;20223;-69
2023/03/03 12:24:34;;;;;;;23.85;14.15;;;;;;;;;;5055856;28;20199;-69
2023/03/03 12:27:09;;;;;;;20.70;10.98;;;;;;;;;;5055947;28;20179;-70
2023/03/03 12:29:45;;;;;;;26.90;14.05;;;;;;;;;;5055825;28;20638;-69
2023/03/03 12:32:20;;;;;;;22.27;12.50;;;;;;;;;;5056117;28;20186;-69
2023/03/03 12:34:51;;;;;;;21.25;12.07;;;;;;;;;;5055336;28;20269;-69
2023/03/03 12:37:33;;;;;;;22.75;13.68;;;;;;;;;;5055984;28;20182;-69
2023/03/03 12:40:08;;;;;;;24.50;13.90;;;;;;;;;;5056064;28;20179;-69
2023/03/03 12:42:43;;;;;;;23.67;13.45;;;;;;;;;;5055960;28;20182;-69
2023/03/03 12:45:19;;;;;;;29.45;15.02;;;;;;;;;;5055106;28;20646;-69
2023/03/03 12:47:47;;;;;;;25.80;13.45;;;;;;;;;;5055409;28;20179;-69
2023/03/03 12:50:24;;;;;;;25.30;13.65;;;;;;;;;;5055674;28;20194;-69
2023/03/03 12:52:58;;;;;;;25.13;13.52;;;;;;;;;;5055318;28;20285;-69
2023/03/03 12:55:30;;;;;;;26.13;13.25;;;;;;;;;;5054963;28;20658;-69
2023/03/03 12:58:00;;;;;;;24.98;12.60;;;;;;;;;;5055588;28;20249;-69
2023/03/03 13:00:39;;;;;;;24.88;12.57;;;;;;;;;;5055601;28;20179;-69
2023/03/03 13:03:10;;;;;;;23.25;12.38;;;;;;;;;;5055066;28;20205;-70
2023/03/03 13:05:45;;;;;;;22.10;12.27;;;;;;;;;;5055164;28;20273;-69
2023/03/03 13:08:21;;;;;;;25.98;12.63;;;;;;;;;;5035913;28;20205;-69
2023/03/03 13:10:50;;;;;;;22.33;12.93;;;;;;;;;;5035004;28;20179;-68
2023/03/03 13:13:19;;;;;;;26.90;12.57;;;;;;;;;;5034650;28;20286;-69
2023/03/03 13:15:49;;;;;;;25.23;14.40;;;;;;;;;;5034927;28;20192;-69
2023/03/03 13:18:24;;;;;;;30.58;15.85;;;;;;;;;;5035174;28;20187;-68
2023/03/03 13:20:54;;;;;;;31.15;15.13;;;;;;;;;;5035310;28;20182;-68
2023/03/03 13:23:33;;;;;;;32.92;16.17;;;;;;;;;;5034741;28;20215;-69
2023/03/03 13:26:04;;;;;;;32.15;16.33;;;;;;;;;;5035062;28;20183;-68
2023/03/03 13:28:33;;;;;;;36.65;15.15;;;;;;;;;;5034844;28;20528;-69
2023/03/03 13:31:03;;;;;;;28.65;14.50;;;;;;;;;;5035179;28;20228;-68
2023/03/03 13:33:32;;;;;;;31.48;15.80;;;;;;;;;;5034892;28;20190;-69
2023/03/03 13:36:01;;;;;;;36.10;17.63;;;;;;;;;;5034718;28;20197;-68
2023/03/03 13:38:31;;;;;;;30.85;15.88;;;;;;;;;;5034914;28;20551;-69
2023/03/03 13:41:03;;;;;;;27.27;15.05;;;;;;;;;;5035149;28;20530;-69
2023/03/03 13:43:32;;;;;;;33.95;16.88;;;;;;;;;;5034214;28;20211;-70
2023/03/03 13:46:04;;;;;;;34.92;16.85;;;;;;;;;;5034824;28;20196;-68
2023/03/03 13:48:46;;;;;;;32.60;16.42;;;;;;;;;;5034295;28;20176;-68
2023/03/03 13:51:18;;;;;;;34.05;17.17;;;;;;;;;;5034432;28;20221;-68
2023/03/03 13:53:52;;;;;;;32.30;17.20;;;;;;;;;;5034247;28;20281;-70
2023/03/03 13:56:31;;;;;;;33.20;15.98;;;;;;;;;;5034399;28;20192;-68
2023/03/03 13:59:03;;;;;;;34.90;15.57;;;;;;;;;;5034571;28;20179;-69
2023/03/03 14:01:35;;;;;;;31.85;15.70;;;;;;;;;;5034118;28;20187;-69
2023/03/03 14:04:06;;;;;;;30.90;16.30;;;;;;;;;;5033870;28;20664;-69
2023/03/03 14:06:33;;;;;;;39.72;18.52;;;;;;;;;;5042066;28;20225;-68
2023/03/03 14:09:08;;;;;;;28.30;17.27;;;;;;;;;;5054011;28;20195;-69
2023/03/03 14:11:38;;;;;;;34.97;17.83;;;;;;;;;;5054214;28;20217;-70
2023/03/03 14:14:12;;;;;;;36.67;19.05;;;;;;;;;;5053713;28;20190;-68
2023/03/03 14:16:43;;;;;;;36.53;16.63;;;;;;;;;;5053396;28;20646;-68
2023/03/03 14:19:16;;;;;;;30.38;16.40;;;;;;;;;;5054192;28;20186;-68
2023/03/03 14:21:46;;;;;;;35.05;17.65;;;;;;;;;;5053898;28;20193;-69
2023/03/03 14:24:17;;;;;;;36.25;18.42;;;;;;;;;;5053616;28;20207;-69
2023/03/03 14:26:48;;;;;;;33.25;16.10;;;;;;;;;;5053695;28;20180;-68
2023/03/03 14:29:20;;;;;;;29.92;15.50;;;;;;;;;;5053167;28;20629;-69
2023/03/03 14:31:48;;;;;;;27.73;15.10;;;;;;;;;;5053496;28;20190;-68
2023/03/03 14:34:27;;;;;;;28.42;14.90;;;;;;;;;;5053255;28;20188;-69